This is the latest recevied weather packets stored in our database for station/object KI7JYE. If no packets are shown the sender has not sent any weather packets the latest 10 day(s).
| Time | Temp. | Humidity | Pressure | Rain* | Wind** | Luminosity | Snow |
|---|---|---|---|---|---|---|---|
| 1778005296 | 14.44° C | 80% | 1015.8 hPa | 0 mm | - | 145 W/m² | - |
| 1778004992 | 15° C | 80% | 1015.7 hPa | 0 mm | - | 150 W/m² | - |
| 1778004691 | 15° C | 79% | 1015.7 hPa | 0 mm | - | 174 W/m² | - |
| 1778004386 | 15.56° C | 77% | 1015.7 hPa | 0 mm | - | 208 W/m² | - |
| 1778004084 | 14.44° C | 79% | 1015.1 hPa | 0 mm | - | 288 W/m² | - |
| 1778003780 | 14.44° C | 81% | 1015.4 hPa | 0 mm | - | 245 W/m² | - |
| 1778003476 | 14.44° C | 81% | 1015.3 hPa | 0 mm | - | 168 W/m² | - |
| 1778003173 | 14.44° C | 79% | 1015.6 hPa | 0 mm | - | 145 W/m² | - |
| 1778002869 | 14.44° C | 80% | 1015.5 hPa | 0 mm | - | 144 W/m² | - |
| 1778002566 | 14.44° C | 80% | 1015.5 hPa | 0 mm | - | 151 W/m² | - |
| 1778002263 | 14.44° C | 79% | 1015.5 hPa | 0 mm | - | 184 W/m² | - |
| 1778001960 | 14.44° C | 80% | 1015.3 hPa | 0 mm | - | 209 W/m² | - |
| 1778001657 | 14.44° C | 81% | 1015.4 hPa | 0 mm | - | 252 W/m² | - |
| 1778001351 | 13.89° C | 81% | 1015.5 hPa | 0 mm | - | 224 W/m² | - |
| 1778001049 | 13.89° C | 81% | 1015.6 hPa | 0 mm | - | 155 W/m² | - |
| 1778000745 | 13.89° C | 82% | 1015.4 hPa | 0 mm | - | 144 W/m² | - |
| 1778000442 | 13.89° C | 81% | 1015.4 hPa | 0 mm | - | 140 W/m² | - |
| 1778000137 | 13.89° C | 83% | 1015.2 hPa | 0 mm | - | 158 W/m² | - |
| 1777999833 | 13.89° C | 82% | 1015.2 hPa | 0 mm | - | 151 W/m² | - |
| 1777999529 | 13.33° C | 84% | 1015 hPa | 0 mm | - | 149 W/m² | - |
| 1777999227 | 13.89° C | 85% | 1015.2 hPa | 0 mm | - | 107 W/m² | - |
| 1777998926 | 13.33° C | 85% | 1015.1 hPa | 0 mm | - | 111 W/m² | - |
| 1777998622 | 13.89° C | 84% | 1015 hPa | 0 mm | - | 108 W/m² | - |
| 1777998315 | 13.89° C | 83% | 1015.2 hPa | 0 mm | - | 121 W/m² | - |
| 1777998012 | 13.89° C | 84% | 1015.2 hPa | 0 mm | - | 115 W/m² | - |
* Rain latest hour (hover to see other rain measurements)
** Current wind speed in m/s (hover to see current wind gust speed)